createdAt,value
2019-01-25T00:01:31.542Z,8.50
2019-01-25T00:03:58.600Z,8.07
2019-01-25T00:06:27.271Z,7.80
2019-01-25T00:08:54.320Z,8.07
2019-01-25T00:11:21.373Z,6.63
2019-01-25T00:13:50.064Z,5.20
2019-01-25T00:16:17.104Z,7.93
2019-01-25T00:18:44.153Z,8.67
2019-01-25T00:21:12.020Z,9.83
2019-01-25T00:23:39.069Z,6.20
2019-01-25T00:26:06.128Z,7.17
2019-01-25T00:28:33.276Z,7.17
2019-01-25T00:31:00.320Z,7.20
2019-01-25T00:33:29.209Z,6.03
2019-01-25T00:35:56.262Z,6.33
2019-01-25T00:38:23.436Z,7.90
2019-01-25T00:40:50.356Z,6.60
2019-01-25T00:43:17.408Z,6.00
2019-01-25T00:45:44.757Z,5.70
2019-01-25T00:48:11.864Z,6.67
2019-01-25T00:50:38.862Z,7.33
2019-01-25T00:53:05.904Z,8.23
2019-01-25T00:55:32.951Z,6.47
2019-01-25T00:58:00.007Z,7.87
2019-01-25T01:00:27.050Z,6.23
2019-01-25T01:02:54.097Z,4.57
2019-01-25T01:05:21.151Z,5.03
2019-01-25T01:07:48.198Z,7.17
2019-01-25T01:10:15.959Z,10.27
2019-01-25T01:12:42.958Z,8.97
2019-01-25T01:15:10.064Z,6.93
2019-01-25T01:17:37.007Z,7.50
2019-01-25T01:20:04.871Z,6.57
2019-01-25T01:22:31.920Z,7.70
2019-01-25T01:24:58.978Z,7.83
2019-01-25T01:27:25.925Z,8.60
2019-01-25T01:29:53.679Z,6.30
2019-01-25T01:32:20.734Z,7.87
2019-01-25T01:34:47.775Z,7.53
2019-01-25T01:37:14.728Z,6.97
2019-01-25T01:39:41.786Z,5.13
2019-01-25T01:42:08.819Z,6.00
2019-01-25T01:44:35.872Z,7.53
2019-01-25T01:47:02.929Z,7.80
2019-01-25T01:49:31.193Z,6.20
2019-01-25T01:51:58.246Z,7.90
2019-01-25T01:54:25.187Z,9.23
2019-01-25T01:56:52.800Z,8.83
2019-01-25T01:59:19.795Z,6.17
2019-01-25T02:01:46.809Z,5.23
2019-01-25T02:04:14.711Z,7.37
2019-01-25T02:06:41.772Z,8.67
2019-01-25T02:09:08.809Z,6.13
2019-01-25T02:11:36.574Z,7.87
2019-01-25T02:14:03.622Z,8.60
2019-01-25T02:16:30.638Z,7.43
2019-01-25T02:18:58.591Z,6.67
2019-01-25T02:21:25.592Z,7.50
2019-01-25T02:23:52.635Z,6.53
2019-01-25T02:26:20.401Z,7.90
2019-01-25T02:28:47.451Z,6.50
2019-01-25T02:31:14.505Z,6.23
2019-01-25T02:33:41.545Z,6.17
2019-01-25T02:36:08.594Z,5.37
2019-01-25T02:38:35.542Z,5.57
2019-01-25T02:41:02.591Z,6.87
2019-01-25T02:43:29.643Z,8.50
2019-01-25T02:45:56.686Z,8.23
2019-01-25T02:48:23.636Z,7.47
2019-01-25T02:50:50.885Z,6.30
2019-01-25T02:53:17.939Z,4.80
2019-01-25T02:55:44.836Z,5.53
2019-01-25T02:58:11.826Z,6.20
2019-01-25T03:00:39.182Z,5.80
2019-01-25T03:03:06.235Z,5.90
2019-01-25T03:05:33.278Z,6.00
2019-01-25T03:08:00.844Z,6.33
2019-01-25T03:10:29.098Z,5.83
2019-01-25T03:12:54.900Z,6.37
2019-01-25T03:15:21.993Z,6.77
2019-01-25T03:17:49.032Z,5.63
2019-01-25T03:20:16.184Z,5.53
2019-01-25T03:22:43.540Z,8.17
2019-01-25T03:25:10.645Z,8.77
2019-01-25T03:27:37.677Z,5.53
2019-01-25T03:30:05.513Z,7.30
2019-01-25T03:32:35.118Z,9.03
2019-01-25T03:35:02.058Z,7.63
2019-01-25T03:37:29.112Z,7.10
2019-01-25T03:39:57.589Z,7.27
2019-01-25T03:42:24.642Z,5.93
2019-01-25T03:44:51.687Z,5.67
2019-01-25T03:47:19.092Z,6.47
2019-01-25T03:49:46.908Z,6.67
2019-01-25T03:52:14.006Z,6.00
2019-01-25T03:54:41.013Z,6.17
2019-01-25T03:57:08.056Z,3.67
2019-01-25T03:59:35.105Z,5.27
2019-01-25T04:02:02.050Z,5.63
2019-01-25T04:04:29.097Z,8.00
2019-01-25T04:06:56.150Z,7.10
2019-01-25T04:09:23.196Z,5.07
2019-01-25T04:11:50.458Z,5.80
2019-01-25T04:14:17.501Z,5.20
2019-01-25T04:16:44.547Z,4.80
2019-01-25T04:19:11.601Z,4.00
2019-01-25T04:21:38.644Z,4.47
2019-01-25T04:24:07.153Z,3.90
2019-01-25T04:26:32.695Z,5.57
2019-01-25T04:28:59.786Z,7.27
2019-01-25T04:31:26.742Z,5.40
2019-01-25T04:33:53.781Z,5.10
2019-01-25T04:36:20.672Z,7.00
2019-01-25T04:38:47.774Z,5.90
2019-01-25T04:41:14.844Z,6.23
2019-01-25T04:43:41.876Z,8.13
2019-01-25T04:46:09.033Z,5.87
2019-01-25T04:48:38.329Z,4.73
2019-01-25T04:51:06.305Z,11.90
2019-01-25T04:53:33.404Z,6.43
2019-01-25T04:56:00.345Z,3.57
2019-01-25T04:58:27.337Z,4.43
2019-01-25T05:00:54.283Z,5.30
2019-01-25T05:03:21.287Z,4.63
2019-01-25T05:05:48.383Z,4.17
2019-01-25T05:08:16.057Z,6.13
2019-01-25T05:10:42.685Z,3.47
2019-01-25T05:13:09.729Z,5.33
2019-01-25T05:15:36.778Z,4.50
2019-01-25T05:18:04.645Z,5.10
2019-01-25T05:20:31.694Z,7.47
2019-01-25T05:23:03.153Z,7.07
2019-01-25T05:25:30.217Z,3.23
2019-01-25T05:27:57.556Z,6.07
2019-01-25T05:30:24.596Z,11.63
2019-01-25T05:32:51.651Z,6.73
2019-01-25T05:35:18.694Z,4.70
2019-01-25T05:37:45.742Z,3.97
2019-01-25T05:40:16.790Z,5.60
2019-01-25T05:42:45.061Z,4.17
2019-01-25T05:45:12.213Z,5.53
2019-01-25T05:47:39.227Z,4.30
2019-01-25T05:50:07.129Z,5.17
2019-01-25T05:52:34.197Z,4.73
2019-01-25T05:55:01.289Z,4.57
2019-01-25T05:57:29.464Z,3.87
2019-01-25T05:59:56.561Z,8.63
2019-01-25T06:02:23.703Z,5.60
2019-01-25T06:04:50.735Z,5.17
2019-01-25T06:07:17.756Z,4.00
2019-01-25T06:09:45.872Z,4.53
2019-01-25T06:12:12.920Z,10.50
2019-01-25T06:14:39.973Z,5.10
2019-01-25T06:17:06.914Z,6.80
2019-01-25T06:19:34.039Z,4.93
2019-01-25T06:22:01.932Z,3.33
2019-01-25T06:24:28.933Z,3.57
2019-01-25T06:26:55.876Z,4.00
2019-01-25T06:29:22.877Z,8.43
2019-01-25T06:31:49.952Z,6.07
2019-01-25T06:34:18.608Z,5.60
2019-01-25T06:36:45.656Z,6.10
2019-01-25T06:39:13.515Z,6.73
2019-01-25T06:41:44.094Z,1.47
2019-01-25T06:44:07.775Z,2.17
2019-01-25T06:46:35.035Z,4.97
2019-01-25T06:49:02.129Z,4.57
2019-01-25T06:51:29.174Z,4.00
2019-01-25T06:53:56.228Z,9.10
2019-01-25T06:56:23.171Z,8.77
2019-01-25T06:58:50.871Z,5.53
2019-01-25T07:01:20.622Z,8.40
2019-01-25T07:03:47.694Z,24.47
2019-01-25T07:06:14.748Z,5.43
2019-01-25T07:08:41.947Z,4.27
2019-01-25T07:11:08.942Z,3.57
2019-01-25T07:13:35.997Z,1.77
2019-01-25T07:16:03.452Z,4.37
2019-01-25T07:18:30.506Z,5.40
2019-01-25T07:21:00.359Z,3.13
2019-01-25T07:23:28.586Z,4.23
2019-01-25T07:25:55.645Z,5.93
2019-01-25T07:28:22.799Z,4.30
2019-01-25T07:30:49.972Z,4.80
2019-01-25T07:33:21.455Z,5.03
2019-01-25T07:35:50.241Z,3.87
2019-01-25T07:38:17.328Z,4.13
2019-01-25T07:40:44.480Z,4.07
2019-01-25T07:43:12.455Z,1.70
2019-01-25T07:45:39.708Z,3.17
2019-01-25T07:48:06.881Z,2.07
2019-01-25T07:50:34.014Z,5.40
2019-01-25T07:53:01.058Z,7.23
2019-01-25T07:55:28.614Z,3.70
2019-01-25T07:57:55.668Z,6.67
2019-01-25T08:00:24.758Z,4.90
2019-01-25T08:02:51.908Z,3.90
2019-01-25T08:05:18.961Z,3.57
2019-01-25T08:07:46.113Z,2.53
2019-01-25T08:10:14.139Z,1.83
2019-01-25T08:12:41.205Z,3.67
2019-01-25T08:15:08.380Z,5.00
2019-01-25T08:17:35.493Z,3.43
2019-01-25T08:20:02.708Z,0.77
2019-01-25T08:22:29.754Z,0.60
2019-01-25T08:24:56.798Z,1.93
2019-01-25T08:27:23.875Z,2.90
2019-01-25T08:29:50.900Z,1.57
2019-01-25T08:32:17.864Z,2.13
2019-01-25T08:34:45.237Z,3.30
2019-01-25T08:37:12.345Z,4.57
2019-01-25T08:39:39.417Z,4.53
2019-01-25T08:42:06.574Z,0.40
2019-01-25T08:44:33.701Z,0.67
2019-01-25T08:47:00.737Z,0.60
2019-01-25T08:49:27.881Z,0.30
2019-01-25T08:51:54.954Z,0.87
2019-01-25T08:54:22.074Z,3.80
2019-01-25T08:56:49.150Z,1.93
2019-01-25T08:59:16.542Z,5.57
2019-01-25T09:01:43.494Z,5.57
2019-01-25T09:04:10.682Z,1.47
2019-01-25T09:06:37.738Z,0.87
2019-01-25T09:09:05.008Z,2.63
2019-01-25T09:11:33.156Z,0.53
2019-01-25T09:14:01.228Z,3.17
2019-01-25T09:16:28.792Z,6.00
2019-01-25T09:18:55.835Z,0.70
2019-01-25T09:21:22.884Z,5.47
2019-01-25T09:23:49.938Z,2.83
2019-01-25T09:26:17.093Z,3.13
2019-01-25T09:28:44.092Z,5.07
2019-01-25T09:31:11.083Z,4.43
2019-01-25T09:33:38.127Z,4.33
2019-01-25T09:36:06.096Z,2.63
2019-01-25T09:38:34.238Z,0.73
2019-01-25T09:41:00.548Z,3.10
2019-01-25T09:43:27.653Z,1.07
2019-01-25T09:45:54.914Z,2.37
2019-01-25T09:48:21.953Z,1.90
2019-01-25T09:50:52.785Z,2.53
2019-01-25T09:53:16.156Z,2.40
2019-01-25T09:55:43.218Z,2.53
2019-01-25T09:58:10.859Z,8.43
2019-01-25T10:00:37.919Z,9.13
2019-01-25T10:03:05.068Z,6.50
2019-01-25T10:05:32.122Z,9.47
2019-01-25T10:07:59.583Z,10.00
2019-01-25T10:10:26.828Z,7.30
2019-01-25T10:13:15.797Z,8.80
2019-01-25T10:15:58.954Z,9.13
2019-01-25T10:18:49.844Z,8.93
2019-01-25T10:21:36.522Z,7.80
2019-01-25T10:24:03.589Z,7.80
2019-01-25T10:26:30.633Z,9.13
2019-01-25T10:28:57.983Z,9.73
2019-01-25T10:31:25.053Z,5.90
2019-01-25T10:33:52.187Z,9.93
2019-01-25T10:36:19.404Z,8.27
2019-01-25T10:38:46.492Z,9.67
2019-01-25T10:41:13.732Z,10.27
2019-01-25T10:43:40.801Z,9.77
2019-01-25T10:46:07.884Z,10.00
2019-01-25T10:48:36.111Z,10.73
2019-01-25T10:51:03.174Z,9.10
2019-01-25T10:53:30.188Z,9.47
2019-01-25T10:55:57.270Z,9.93
2019-01-25T10:58:24.510Z,11.43
2019-01-25T11:00:51.565Z,10.47
2019-01-25T11:03:18.613Z,10.00
2019-01-25T11:05:45.657Z,10.50
2019-01-25T11:08:12.871Z,10.93
2019-01-25T11:10:40.273Z,9.27
2019-01-25T11:13:07.586Z,11.17
2019-01-25T11:15:34.679Z,6.77
2019-01-25T11:18:01.726Z,11.07
2019-01-25T11:20:28.769Z,11.13
2019-01-25T11:22:55.903Z,11.83
2019-01-25T11:25:26.486Z,11.13
2019-01-25T11:27:53.544Z,10.97
2019-01-25T11:30:20.611Z,10.10
2019-01-25T11:32:47.802Z,10.90
2019-01-25T11:35:15.011Z,10.93
2019-01-25T11:37:42.142Z,12.07
2019-01-25T11:40:14.069Z,11.27
2019-01-25T11:42:42.053Z,9.80
2019-01-25T11:45:09.290Z,11.07
2019-01-25T11:47:36.377Z,9.97
2019-01-25T11:50:03.592Z,10.67
2019-01-25T11:52:30.645Z,10.40
2019-01-25T11:54:58.072Z,10.37
2019-01-25T11:57:25.249Z,11.47
2019-01-25T11:59:52.415Z,11.53
2019-01-25T12:02:20.997Z,9.67
2019-01-25T12:04:47.111Z,10.63
2019-01-25T12:07:14.368Z,10.40
2019-01-25T12:09:41.396Z,11.83
2019-01-25T12:12:08.472Z,10.63
2019-01-25T12:14:35.513Z,11.47
2019-01-25T12:17:02.556Z,11.00
2019-01-25T12:19:29.605Z,11.40
2019-01-25T12:21:56.858Z,9.80
2019-01-25T12:24:23.907Z,10.47
2019-01-25T12:26:51.090Z,10.17
2019-01-25T12:29:18.217Z,9.97
2019-01-25T12:31:47.113Z,10.50
2019-01-25T12:34:14.457Z,11.53
2019-01-25T12:36:43.808Z,10.60
2019-01-25T12:39:12.553Z,10.57
2019-01-25T12:41:40.014Z,10.57
2019-01-25T12:44:07.054Z,10.97
2019-01-25T12:46:34.204Z,10.97
2019-01-25T12:49:01.464Z,10.07
2019-01-25T12:51:29.293Z,10.93
2019-01-25T12:53:56.605Z,10.40
2019-01-25T12:56:23.631Z,10.73
2019-01-25T12:58:50.786Z,11.20
2019-01-25T13:01:17.844Z,11.03
2019-01-25T13:03:44.879Z,10.77
2019-01-25T13:06:11.880Z,10.97
2019-01-25T13:08:38.979Z,12.03
2019-01-25T13:11:05.977Z,11.23
2019-01-25T13:13:33.027Z,11.17
2019-01-25T13:16:00.190Z,11.20
2019-01-25T13:18:28.194Z,10.27
2019-01-25T13:20:55.256Z,10.40
2019-01-25T13:23:22.291Z,10.30
2019-01-25T13:25:49.648Z,10.53
2019-01-25T13:28:16.910Z,10.63
2019-01-25T13:30:44.005Z,11.30
2019-01-25T13:33:11.100Z,10.73
2019-01-25T13:35:38.195Z,11.03
2019-01-25T13:38:05.309Z,11.17
2019-01-25T13:40:32.718Z,11.80
2019-01-25T13:43:00.627Z,12.00
2019-01-25T13:45:27.675Z,12.23
2019-01-25T13:47:54.718Z,10.77
2019-01-25T13:50:22.586Z,11.73
2019-01-25T13:52:49.737Z,12.47
2019-01-25T13:55:16.808Z,12.57
2019-01-25T13:57:43.839Z,11.60
2019-01-25T14:00:12.118Z,12.27
2019-01-25T14:02:39.414Z,12.23
2019-01-25T14:05:06.534Z,11.40
2019-01-25T14:07:33.564Z,13.07
2019-01-25T14:10:00.614Z,11.97
2019-01-25T14:12:27.668Z,12.07
2019-01-25T14:14:54.818Z,11.27
2019-01-25T14:17:21.863Z,11.73
2019-01-25T14:19:48.914Z,11.80
2019-01-25T14:22:15.993Z,11.50
2019-01-25T14:24:43.007Z,11.60
2019-01-25T14:27:10.055Z,11.63
2019-01-25T14:29:37.206Z,13.43
2019-01-25T14:32:04.424Z,11.97
2019-01-25T14:34:31.507Z,12.83
2019-01-25T14:36:58.659Z,12.10
2019-01-25T14:39:25.725Z,12.43
2019-01-25T14:41:52.863Z,12.20
2019-01-25T14:44:19.876Z,12.70
2019-01-25T14:46:46.924Z,11.90
2019-01-25T14:49:14.015Z,11.80
2019-01-25T14:51:41.053Z,12.50
2019-01-25T14:54:08.103Z,12.07
2019-01-25T14:56:35.154Z,12.40
2019-01-25T14:59:10.211Z,12.93
2019-01-25T15:01:37.352Z,12.93
2019-01-25T15:04:04.385Z,12.50
2019-01-25T15:06:33.282Z,12.43
2019-01-25T15:09:00.440Z,12.40
2019-01-25T15:11:27.476Z,12.63
2019-01-25T15:14:01.953Z,11.33
2019-01-25T15:16:21.779Z,13.80
2019-01-25T15:18:48.731Z,15.33
2019-01-25T15:21:17.728Z,15.77
2019-01-25T15:23:44.766Z,13.43
2019-01-25T15:26:11.819Z,12.90
2019-01-25T15:28:38.886Z,12.63
2019-01-25T15:31:05.914Z,12.73
2019-01-25T15:33:33.015Z,12.93
2019-01-25T15:36:00.127Z,12.70
2019-01-25T15:38:27.167Z,13.17
2019-01-25T15:40:54.220Z,13.03
2019-01-25T15:43:21.261Z,12.93
2019-01-25T15:45:48.321Z,14.17
2019-01-25T15:48:20.239Z,12.80
2019-01-25T15:50:47.427Z,13.43
2019-01-25T15:53:14.492Z,13.87
2019-01-25T15:55:41.784Z,13.73
2019-01-25T15:58:08.878Z,13.50
2019-01-25T16:00:35.997Z,14.90
2019-01-25T16:06:03.328Z,13.70
2019-01-25T16:08:30.480Z,14.50
2019-01-25T16:10:57.608Z,13.50
2019-01-25T16:13:26.255Z,13.33
2019-01-25T16:15:53.343Z,13.30
2019-01-25T16:18:20.489Z,13.40
2019-01-25T16:20:47.746Z,13.13
2019-01-25T16:23:14.792Z,14.17
2019-01-25T16:25:41.839Z,13.97
2019-01-25T16:28:09.910Z,14.40
2019-01-25T16:30:36.966Z,14.47
2019-01-25T16:33:04.008Z,13.13
2019-01-25T16:35:31.379Z,13.80
2019-01-25T16:37:58.508Z,14.20
2019-01-25T16:40:25.594Z,13.93
2019-01-25T16:42:52.817Z,13.53
2019-01-25T16:45:20.832Z,14.50
2019-01-25T16:47:47.942Z,13.53
2019-01-25T16:50:15.094Z,14.63
2019-01-25T16:52:42.139Z,16.43
2019-01-25T16:55:12.180Z,16.27
2019-01-25T16:57:39.206Z,15.77
2019-01-25T17:00:07.174Z,15.13
2019-01-25T17:02:34.227Z,13.20
2019-01-25T17:05:02.515Z,14.03
2019-01-25T17:07:29.609Z,13.77
2019-01-25T17:09:56.603Z,13.60
2019-01-25T17:12:23.654Z,14.03
2019-01-25T17:14:50.648Z,14.83
2019-01-25T17:17:17.750Z,13.57
2019-01-25T17:19:44.792Z,14.33
2019-01-25T17:22:12.067Z,14.07
2019-01-25T17:24:39.092Z,14.07
2019-01-25T17:27:06.147Z,14.37
2019-01-25T17:29:33.297Z,14.20
2019-01-25T17:32:00.312Z,13.87
2019-01-25T17:34:29.439Z,13.40
2019-01-25T17:36:56.554Z,12.90
2019-01-25T17:39:24.975Z,13.87
2019-01-25T17:41:52.025Z,13.87
2019-01-25T17:44:19.992Z,14.50
2019-01-25T17:46:49.511Z,14.57
2019-01-25T17:49:16.549Z,14.90
2019-01-25T17:51:44.006Z,14.10
2019-01-25T17:54:13.926Z,15.07
2019-01-25T17:56:43.030Z,15.47
2019-01-25T17:59:10.169Z,16.03
2019-01-25T18:01:41.409Z,15.73
2019-01-25T18:04:17.162Z,17.03
2019-01-25T18:06:46.669Z,16.13
2019-01-25T18:09:16.365Z,16.10
2019-01-25T18:11:46.017Z,14.03
2019-01-25T18:14:15.593Z,15.43
2019-01-25T18:16:42.694Z,9.03
2019-01-25T18:19:09.796Z,9.83
2019-01-25T18:21:36.950Z,10.23
2019-01-25T18:24:04.001Z,7.37
2019-01-25T18:26:31.049Z,8.70
2019-01-25T18:28:58.093Z,10.10
2019-01-25T18:31:25.896Z,10.10
2019-01-25T18:33:53.407Z,7.63
2019-01-25T18:36:20.493Z,8.33
2019-01-25T18:38:48.465Z,9.67
2019-01-25T18:41:15.922Z,10.03
2019-01-25T18:43:43.073Z,9.23
2019-01-25T18:46:10.091Z,8.73
2019-01-25T18:48:37.167Z,9.17
2019-01-25T18:51:04.218Z,10.10
2019-01-25T18:53:31.150Z,9.50
2019-01-25T18:55:58.991Z,9.50
2019-01-25T18:58:26.075Z,9.13
2019-01-25T19:00:56.867Z,9.83
2019-01-25T19:03:23.965Z,8.50
2019-01-25T19:05:50.982Z,10.03
2019-01-25T19:08:18.161Z,6.87
2019-01-25T19:10:45.209Z,9.97
2019-01-25T19:13:13.915Z,11.47
2019-01-25T19:15:41.047Z,10.07
2019-01-25T19:18:08.963Z,14.87
2019-01-25T19:20:37.095Z,16.33
2019-01-25T19:23:04.314Z,17.70
2019-01-25T19:25:31.396Z,12.80
2019-01-25T19:28:03.110Z,15.10
2019-01-25T19:30:32.878Z,15.70
2019-01-25T19:32:59.916Z,10.80
2019-01-25T19:35:26.967Z,11.57
2019-01-25T19:37:54.009Z,10.57
2019-01-25T19:40:31.459Z,11.13
2019-01-25T19:42:58.547Z,10.03
2019-01-25T19:45:25.699Z,9.30
2019-01-25T19:47:54.493Z,15.77
2019-01-25T19:50:21.700Z,11.07
2019-01-25T19:52:48.892Z,9.83
2019-01-25T19:55:17.540Z,9.90
2019-01-25T19:57:45.661Z,11.37
2019-01-25T20:00:14.032Z,12.33
2019-01-25T20:02:41.095Z,33.73
2019-01-25T20:05:09.793Z,14.07
2019-01-25T20:07:37.635Z,20.53
2019-01-25T20:10:04.689Z,8.97
2019-01-25T20:12:31.684Z,17.83
2019-01-25T20:15:04.264Z,13.30
2019-01-25T20:17:31.257Z,9.67
2019-01-25T20:19:58.934Z,15.23
2019-01-25T20:22:25.972Z,5.90
2019-01-25T20:24:53.323Z,7.03
2019-01-25T20:27:20.372Z,11.33
2019-01-25T20:29:47.426Z,11.37
2019-01-25T20:32:15.397Z,11.20
2019-01-25T20:34:42.836Z,11.10
2019-01-25T20:37:10.003Z,11.80
2019-01-25T20:39:37.049Z,12.03
2019-01-25T20:42:04.048Z,9.57
2019-01-25T20:44:31.451Z,13.83
2019-01-25T20:46:58.454Z,11.73
2019-01-25T20:49:25.448Z,12.13
2019-01-25T20:51:52.494Z,10.43
2019-01-25T20:54:19.607Z,12.10
2019-01-25T20:56:46.700Z,11.30
2019-01-25T20:59:13.748Z,10.27
2019-01-25T21:01:40.790Z,11.80
2019-01-25T21:04:07.846Z,13.80
2019-01-25T21:06:36.732Z,22.37
2019-01-25T21:09:04.089Z,13.47
2019-01-25T21:11:32.878Z,14.63
2019-01-25T21:13:59.925Z,14.00
2019-01-25T21:16:27.498Z,12.53
2019-01-25T21:18:55.255Z,13.50
2019-01-25T21:21:22.510Z,12.37
2019-01-25T21:23:49.562Z,22.60
2019-01-25T21:26:16.812Z,13.67
2019-01-25T21:28:43.819Z,13.27
2019-01-25T21:31:12.651Z,10.00
2019-01-25T21:33:39.697Z,12.70
2019-01-25T21:36:06.860Z,22.93
2019-01-25T21:38:33.903Z,22.93
2019-01-25T21:41:00.948Z,58.70
2019-01-25T21:43:27.988Z,16.97
2019-01-25T21:45:55.253Z,15.47
2019-01-25T21:48:22.401Z,10.60
2019-01-25T21:50:49.441Z,14.37
2019-01-25T21:53:16.490Z,15.93
2019-01-25T21:55:43.543Z,15.33
2019-01-25T21:58:10.590Z,12.93
2019-01-25T22:00:37.641Z,14.40
2019-01-25T22:03:06.633Z,12.43
2019-01-25T22:05:33.999Z,12.50
2019-01-25T22:08:01.037Z,14.87
2019-01-25T22:10:29.939Z,15.00
2019-01-25T22:12:57.080Z,11.80
2019-01-25T22:15:24.332Z,10.87
2019-01-25T22:17:51.590Z,10.60
2019-01-25T22:20:20.641Z,4.67
2019-01-25T22:22:50.098Z,11.40
2019-01-25T22:25:18.158Z,10.70
2019-01-25T22:27:45.310Z,12.83
2019-01-25T22:30:13.197Z,16.47
2019-01-25T22:32:40.227Z,11.63
2019-01-25T22:35:07.375Z,13.37
2019-01-25T22:37:34.423Z,6.33
2019-01-25T22:40:01.477Z,9.70
2019-01-25T22:42:28.522Z,4.37
2019-01-25T22:44:55.569Z,10.47
2019-01-25T22:47:22.621Z,14.60
2019-01-25T22:49:52.262Z,13.40
2019-01-25T22:52:19.273Z,12.60
2019-01-25T22:54:46.374Z,13.47
2019-01-25T22:57:13.472Z,13.90
2019-01-25T22:59:40.473Z,13.03
2019-01-25T23:02:07.569Z,9.97
2019-01-25T23:04:35.027Z,11.90
2019-01-25T23:07:03.548Z,13.07
2019-01-25T23:09:30.560Z,7.10
2019-01-25T23:11:59.255Z,12.07
2019-01-25T23:14:26.292Z,13.97
2019-01-25T23:16:53.350Z,13.17
2019-01-25T23:19:21.876Z,12.50
2019-01-25T23:21:50.260Z,11.07
2019-01-25T23:24:16.026Z,12.73
2019-01-25T23:26:43.684Z,13.87
2019-01-25T23:29:10.756Z,15.07
2019-01-25T23:31:37.788Z,10.47
2019-01-25T23:34:05.341Z,13.47
2019-01-25T23:36:32.395Z,3.27
2019-01-25T23:38:59.441Z,3.90
2019-01-25T23:41:26.503Z,11.47
2019-01-25T23:43:53.542Z,1.93
2019-01-25T23:46:21.198Z,3.20
2019-01-25T23:48:48.348Z,4.43
2019-01-25T23:51:15.398Z,9.13
2019-01-25T23:53:42.450Z,15.33
2019-01-25T23:56:09.493Z,5.33
2019-01-25T23:58:36.445Z,15.27
